Time;durP1;ratioP1;P1;durP2;ratioP2;P2;SDS_P1;SDS_P2;PMS_P1;PMS_P2;Temp;Humidity;BMP_temperature;BMP_pressure;BME280_temperature;BME280_humidity;BME280_pressure;Samples;Min_cycle;Max_cycle;Signal;HPM_P1;HPM_P2
2022/01/28 00:00:14;;;;;;;;;47.00;40.50;16.40;99.90;;;;;;5079621;28;11664;-50
2022/01/28 00:05:35;;;;;;;;;56.75;47.75;16.40;99.90;;;;;;5077610;28;11538;-50
2022/01/28 00:08:07;;;;;;;;;57.00;48.00;16.40;99.90;;;;;;5074923;28;11563;-46
2022/01/28 00:10:40;;;;;;;;;55.33;46.67;16.40;99.90;;;;;;5079700;28;11604;-51
2022/01/28 00:13:23;;;;;;;;;56.00;47.00;16.40;99.90;;;;;;5079537;28;11531;-50
2022/01/28 00:38:10;;;;;;;;;35.25;33.00;16.40;99.90;;;;;;5053648;28;12030;-47
2022/01/28 00:40:40;;;;;;;;;35.50;33.25;16.40;99.90;;;;;;5074347;28;11538;-47
2022/01/28 00:43:11;;;;;;;;;35.00;32.75;16.30;99.90;;;;;;5080324;28;11737;-46
2022/01/28 00:45:42;;;;;;;;;38.00;34.25;16.30;99.90;;;;;;5079118;28;11531;-46
2022/01/28 00:48:13;;;;;;;;;38.00;34.50;16.30;99.90;;;;;;5076851;28;11542;-48
2022/01/28 00:50:45;;;;;;;;;35.00;32.75;16.30;99.90;;;;;;5052550;28;11546;-47
2022/01/28 00:53:16;;;;;;;;;35.50;33.00;16.40;99.90;;;;;;5073987;28;11539;-49
2022/01/28 00:55:49;;;;;;;;;33.25;31.75;16.40;99.90;;;;;;5077830;28;11496;-50
2022/01/28 00:58:20;;;;;;;;;30.75;29.25;16.40;99.90;;;;;;5080344;28;11465;-46
2022/01/28 01:00:51;;;;;;;;;31.00;30.25;16.30;99.90;;;;;;5075887;28;11448;-49
2022/01/28 01:03:23;;;;;;;;;28.75;28.50;16.40;99.90;;;;;;5078051;28;11561;-46
2022/01/28 01:05:53;;;;;;;;;29.50;29.00;16.30;99.90;;;;;;5073991;28;11619;-45
2022/01/28 01:08:24;;;;;;;;;26.50;26.50;16.30;99.90;;;;;;5073899;28;11451;-47
2022/01/28 01:10:54;;;;;;;;;24.25;24.00;16.30;99.90;;;;;;5078474;28;11483;-44
2022/01/28 01:13:24;;;;;;;;;16.75;16.75;16.30;99.90;;;;;;5063465;28;11482;-50
2022/01/28 01:15:59;;;;;;;;;16.75;16.75;16.20;99.90;;;;;;5078706;28;11492;-50
2022/01/28 01:18:38;;;;;;;;;15.25;15.25;16.30;99.90;;;;;;5081777;28;11630;-49
2022/01/28 01:21:13;;;;;;;;;17.25;17.25;16.30;99.90;;;;;;5080324;28;10984;-50
2022/01/28 01:23:54;;;;;;;;;14.75;14.75;16.20;99.90;;;;;;5080901;28;11111;-46
2022/01/28 01:26:32;;;;;;;;;14.00;14.00;16.20;99.90;;;;;;5088309;28;11167;-48
2022/01/28 01:29:11;;;;;;;;;15.75;15.75;16.10;99.90;;;;;;5084577;28;11156;-50
2022/01/28 01:31:42;;;;;;;;;14.50;14.50;16.20;99.90;;;;;;5079658;28;11281;-46
2022/01/28 01:34:19;;;;;;;;;14.00;14.00;16.10;99.90;;;;;;5075295;28;11179;-48
2022/01/28 01:36:51;;;;;;;;;8.00;8.00;16.10;99.90;;;;;;5072994;28;11194;-45
2022/01/28 01:39:25;;;;;;;;;16.00;14.75;16.10;99.90;;;;;;5072263;28;11023;-50
2022/01/28 01:42:00;;;;;;;;;15.25;15.25;16.00;99.90;;;;;;5081477;28;11132;-49
2022/01/28 01:52:29;;;;;;;;;17.25;15.75;15.90;99.90;;;;;;5078960;28;11586;-48
2022/01/28 01:55:00;;;;;;;;;14.00;14.00;15.90;99.90;;;;;;5077894;28;12602;-48
2022/01/28 01:57:32;;;;;;;;;7.00;7.00;15.90;99.90;;;;;;5071588;28;11391;-49
2022/01/28 02:00:04;;;;;;;;;13.00;13.00;15.80;99.90;;;;;;5074096;28;11431;-46
2022/01/28 02:02:36;;;;;;;;;14.50;14.50;15.80;99.90;;;;;;5078291;28;11506;-46
2022/01/28 02:05:07;;;;;;;;;12.00;12.00;15.80;99.90;;;;;;5080736;28;11413;-48
2022/01/28 02:07:45;;;;;;;;;12.50;12.50;15.70;99.90;;;;;;5081066;28;11482;-50
2022/01/28 02:10:15;;;;;;;;;13.75;13.75;15.70;99.90;;;;;;5081798;28;11451;-46
2022/01/28 02:12:47;;;;;;;;;11.25;11.25;15.70;99.90;;;;;;5076303;28;11502;-50
2022/01/28 02:15:19;;;;;;;;;12.50;12.50;15.60;99.90;;;;;;5076448;28;11410;-46
2022/01/28 02:17:51;;;;;;;;;16.75;16.75;15.60;99.90;;;;;;5059909;28;11467;-47
2022/01/28 02:20:31;;;;;;;;;14.00;14.00;15.60;99.90;;;;;;5083422;28;11486;-45
2022/01/28 02:23:03;;;;;;;;;14.75;14.75;15.50;99.90;;;;;;5069528;28;11458;-47
2022/01/28 02:25:34;;;;;;;;;13.75;13.75;15.50;99.90;;;;;;5084056;28;12249;-50
2022/01/28 02:28:07;;;;;;;;;14.50;14.50;15.50;99.90;;;;;;5062097;28;12522;-49
2022/01/28 02:30:37;;;;;;;;;14.00;14.00;15.50;99.90;;;;;;5081869;28;11999;-45
2022/01/28 02:33:12;;;;;;;;;11.50;11.50;15.40;99.90;;;;;;5080068;28;11455;-48
2022/01/28 02:35:43;;;;;;;;;16.00;16.00;15.40;99.90;;;;;;5079341;28;11966;-48
2022/01/28 02:38:24;;;;;;;;;14.25;14.25;15.40;99.90;;;;;;5054020;28;11450;-47
2022/01/28 02:40:57;;;;;;;;;14.25;14.25;15.30;99.90;;;;;;5077434;28;11461;-49
2022/01/28 02:44:01;;;;;;;;;13.00;13.00;15.30;99.90;;;;;;5082706;28;11440;-45
2022/01/28 02:46:34;;;;;;;;;15.00;15.00;15.30;99.90;;;;;;5083004;28;11567;-48
2022/01/28 02:49:08;;;;;;;;;15.00;15.00;15.20;99.90;;;;;;5079524;28;11458;-49
2022/01/28 02:51:39;;;;;;;;;14.00;14.00;15.20;99.90;;;;;;5079372;28;11460;-47
2022/01/28 02:54:15;;;;;;;;;15.25;15.25;15.10;99.90;;;;;;5073457;28;12229;-48
2022/01/28 02:56:51;;;;;;;;;15.00;15.00;15.10;99.90;;;;;;5087910;28;11453;-48
2022/01/28 02:59:21;;;;;;;;;15.25;15.25;15.10;99.90;;;;;;5077706;28;11497;-51
2022/01/28 03:01:52;;;;;;;;;15.75;15.75;15.10;99.90;;;;;;5075261;28;11468;-50
2022/01/28 03:05:00;;;;;;;;;17.50;17.50;15.00;99.90;;;;;;5075237;28;11526;-49
2022/01/28 03:07:12;;;;;;;;;17.75;17.75;15.00;99.90;;;;;;5080672;28;11702;-45
2022/01/28 03:10:12;;;;;;;;;18.00;18.00;14.90;99.90;;;;;;5082667;28;11523;-47
2022/01/28 03:13:13;;;;;;;;;17.75;17.75;15.00;99.90;;;;;;5074317;28;11485;-47
2022/01/28 03:15:41;;;;;;;;;14.50;14.50;14.90;99.90;;;;;;5082889;28;11457;-47
2022/01/28 03:18:17;;;;;;;;;19.25;19.25;14.90;99.90;;;;;;5079069;28;11503;-45
2022/01/28 03:23:24;;;;;;;;;16.50;16.50;14.80;99.90;;;;;;5073945;28;12219;-47
2022/01/28 03:25:55;;;;;;;;;15.50;15.00;14.80;99.90;;;;;;5081816;28;11470;-48
2022/01/28 03:28:25;;;;;;;;;13.75;13.75;14.80;99.90;;;;;;5079258;28;11448;-48
2022/01/28 03:30:57;;;;;;;;;10.25;10.25;14.80;99.90;;;;;;5082613;28;11429;-49
2022/01/28 03:33:27;;;;;;;;;12.00;12.00;14.80;99.90;;;;;;5066217;28;11466;-46
2022/01/28 03:36:01;;;;;;;;;10.75;10.75;14.70;99.90;;;;;;5084229;28;11466;-49
2022/01/28 03:38:31;;;;;;;;;12.00;11.75;14.70;99.90;;;;;;5076261;28;11437;-45
2022/01/28 03:41:03;;;;;;;;;7.00;7.00;14.70;99.90;;;;;;5085726;28;11615;-47
2022/01/28 03:43:34;;;;;;;;;12.50;11.00;14.70;99.90;;;;;;5078477;28;11432;-46
2022/01/28 03:46:06;;;;;;;;;8.00;8.00;14.60;99.90;;;;;;5077965;28;12151;-47
2022/01/28 03:48:36;;;;;;;;;7.75;7.75;14.60;99.90;;;;;;5087719;28;12241;-47
2022/01/28 03:51:08;;;;;;;;;7.00;7.00;14.60;99.90;;;;;;5079370;28;11430;-48
2022/01/28 03:53:38;;;;;;;;;4.00;4.00;14.50;99.90;;;;;;5081937;28;11424;-47
2022/01/28 03:56:08;;;;;;;;;9.25;7.75;14.60;99.90;;;;;;5081911;28;12147;-48
2022/01/28 03:58:39;;;;;;;;;9.00;9.00;14.50;99.90;;;;;;5075355;28;11426;-50
2022/01/28 04:01:21;;;;;;;;;7.50;7.50;14.50;99.90;;;;;;5071678;28;11453;-45
2022/01/28 04:12:22;;;;;;;;;13.50;12.25;14.30;99.90;;;;;;5056449;28;11395;-47
2022/01/28 04:17:42;;;;;;;;;20.00;20.00;14.20;99.90;;;;;;5068958;28;11562;-46
2022/01/28 04:20:13;;;;;;;;;18.75;18.75;14.20;99.90;;;;;;5069988;28;11534;-47
2022/01/28 04:22:44;;;;;;;;;22.00;22.00;14.20;99.90;;;;;;5070785;28;12296;-44
2022/01/28 04:25:14;;;;;;;;;19.00;19.00;14.10;99.90;;;;;;5069459;28;11672;-50
2022/01/28 04:27:46;;;;;;;;;1.50;1.25;14.10;99.90;;;;;;5085260;28;11506;-46
2022/01/28 04:30:16;;;;;;;;;19.00;18.00;14.10;99.90;;;;;;5073436;28;11429;-45
2022/01/28 04:32:50;;;;;;;;;15.00;15.00;14.00;99.90;;;;;;5079585;28;11539;-47
2022/01/28 04:35:21;;;;;;;;;21.75;20.25;14.00;99.90;;;;;;5074284;28;11502;-48
2022/01/28 04:40:28;;;;;;;;;20.25;20.25;14.00;99.90;;;;;;5077152;28;12275;-48
2022/01/28 04:45:48;;;;;;;;;19.50;19.50;13.90;99.90;;;;;;5077742;28;13154;-48
2022/01/28 04:48:33;;;;;;;;;18.50;18.50;13.90;99.90;;;;;;5076391;28;11531;-46
2022/01/28 04:51:24;;;;;;;;;18.25;18.25;13.80;99.90;;;;;;5071302;28;11491;-49
2022/01/28 04:56:39;;;;;;;;;23.00;21.50;13.80;99.90;;;;;;5038292;28;12530;-47
2022/01/28 04:59:31;;;;;;;;;17.00;17.00;13.70;99.90;;;;;;5037378;28;11972;-44
2022/01/28 05:02:16;;;;;;;;;21.25;20.25;13.70;99.90;;;;;;5032747;28;11726;-47
2022/01/28 05:05:26;;;;;;;;;14.75;14.50;13.70;99.90;;;;;;5037143;28;11565;-46
2022/01/28 05:13:46;;;;;;;;;16.50;16.50;13.60;99.90;;;;;;5037991;28;11933;-45
2022/01/28 05:23:22;;;;;;;;;19.00;19.00;13.50;99.90;;;;;;5035134;28;11545;-44
2022/01/28 05:28:11;;;;;;;;;18.50;17.75;13.40;99.90;;;;;;4994305;28;11614;-47
2022/01/28 05:30:43;;;;;;;;;17.25;16.25;13.40;99.90;;;;;;5039315;28;12344;-48
2022/01/28 05:33:14;;;;;;;;;17.50;17.00;13.40;99.90;;;;;;5030867;28;11604;-49
2022/01/28 05:35:44;;;;;;;;;15.75;15.50;13.30;99.90;;;;;;5034998;28;12579;-48
2022/01/28 05:38:15;;;;;;;;;19.75;17.00;13.30;99.90;;;;;;5026855;28;11672;-47
2022/01/28 05:40:46;;;;;;;;;19.00;19.00;13.20;99.90;;;;;;5030937;28;11568;-50
2022/01/28 05:43:17;;;;;;;;;17.25;17.25;13.20;99.90;;;;;;5032231;28;12216;-49
2022/01/28 05:45:48;;;;;;;;;18.50;18.50;13.20;99.90;;;;;;5028490;28;11575;-47
2022/01/28 05:48:22;;;;;;;;;14.00;14.00;13.10;99.90;;;;;;5033247;28;12317;-46
2022/01/28 05:50:57;;;;;;;;;14.00;14.00;13.10;99.90;;;;;;5033935;28;11530;-48
2022/01/28 05:53:27;;;;;;;;;13.75;13.75;13.10;99.90;;;;;;5076262;28;11530;-45
2022/01/28 05:55:59;;;;;;;;;13.50;13.50;13.00;99.90;;;;;;5079203;28;11562;-45
2022/01/28 05:58:30;;;;;;;;;15.50;15.50;13.10;99.90;;;;;;5092832;28;11866;-47
2022/01/28 06:01:00;;;;;;;;;15.00;15.00;13.00;99.90;;;;;;5073983;28;12210;-47
2022/01/28 06:03:32;;;;;;;;;15.25;15.25;13.00;99.90;;;;;;5074999;28;11492;-48
2022/01/28 06:06:03;;;;;;;;;15.75;15.75;12.90;99.90;;;;;;5076499;28;11509;-44
2022/01/28 06:08:35;;;;;;;;;18.25;17.25;12.90;99.90;;;;;;5075841;28;12218;-46
2022/01/28 06:11:06;;;;;;;;;19.00;19.00;12.90;99.90;;;;;;5082727;28;11529;-46
2022/01/28 06:13:38;;;;;;;;;19.00;18.00;12.90;99.90;;;;;;5063221;28;11509;-47
2022/01/28 06:16:12;;;;;;;;;19.00;18.50;12.70;99.90;;;;;;5081271;28;11539;-49
2022/01/28 06:18:43;;;;;;;;;17.00;17.00;12.70;99.90;;;;;;5077025;28;11528;-48
2022/01/28 06:21:16;;;;;;;;;15.50;15.50;12.70;99.90;;;;;;5082690;28;11566;-46
2022/01/28 06:23:47;;;;;;;;;17.50;17.50;12.70;99.90;;;;;;5074122;28;12231;-46
2022/01/28 06:26:20;;;;;;;;;17.25;17.25;12.60;99.90;;;;;;5074243;28;11481;-46
2022/01/28 06:28:51;;;;;;;;;17.50;17.50;12.70;99.90;;;;;;5082415;28;11531;-47
2022/01/28 06:31:21;;;;;;;;;8.25;8.25;12.70;99.90;;;;;;5076890;28;11556;-45
2022/01/28 06:33:52;;;;;;;;;17.75;17.75;12.60;99.90;;;;;;5060188;28;11466;-48
2022/01/28 06:36:23;;;;;;;;;17.50;15.50;12.60;99.90;;;;;;5083702;28;11521;-45
2022/01/28 06:38:53;;;;;;;;;17.25;17.25;12.50;99.90;;;;;;5086121;28;11503;-44
2022/01/28 06:41:24;;;;;;;;;17.00;17.00;12.50;99.90;;;;;;5075231;28;12303;-46
2022/01/28 06:43:54;;;;;;;;;16.50;16.50;12.50;99.90;;;;;;5073983;28;11635;-44
2022/01/28 06:46:26;;;;;;;;;4.00;4.00;12.40;99.90;;;;;;5081159;28;11560;-50
2022/01/28 06:48:56;;;;;;;;;16.25;16.25;12.40;99.90;;;;;;5070541;28;11467;-49
2022/01/28 06:51:26;;;;;;;;;18.50;16.50;12.40;99.90;;;;;;5085889;28;11645;-46
2022/01/28 06:53:57;;;;;;;;;15.25;15.25;12.40;99.90;;;;;;5056946;28;12064;-48
2022/01/28 06:56:28;;;;;;;;;14.00;14.00;12.40;99.90;;;;;;5055891;28;11888;-50
2022/01/28 06:58:57;;;;;;;;;26.50;25.25;12.30;99.90;;;;;;5058457;28;11673;-46
2022/01/28 07:01:27;;;;;;;;;24.50;24.50;12.30;99.90;;;;;;5052904;28;11694;-49
2022/01/28 07:04:00;;;;;;;;;26.50;26.50;12.30;99.90;;;;;;5059257;28;11539;-47
2022/01/28 07:06:30;;;;;;;;;24.50;23.50;12.30;99.90;;;;;;5055186;28;11677;-47
2022/01/28 07:09:00;;;;;;;;;24.00;22.50;12.20;99.90;;;;;;5063162;28;11529;-45
2022/01/28 07:11:30;;;;;;;;;26.00;24.50;12.10;99.90;;;;;;5055243;28;11535;-45
2022/01/28 07:14:01;;;;;;;;;24.75;24.00;12.00;99.90;;;;;;5050941;28;11542;-48
2022/01/28 07:16:32;;;;;;;;;21.50;21.50;12.00;99.90;;;;;;5055101;28;12181;-47
2022/01/28 07:19:04;;;;;;;;;22.50;22.50;12.00;99.90;;;;;;5056223;28;11565;-48
2022/01/28 07:21:36;;;;;;;;;19.25;19.25;12.00;99.90;;;;;;5063850;28;11698;-48
2022/01/28 07:24:07;;;;;;;;;26.50;26.50;11.90;99.90;;;;;;5053639;28;11663;-47
2022/01/28 07:26:37;;;;;;;;;17.50;17.50;11.90;99.90;;;;;;5054300;28;11681;-47
2022/01/28 07:29:10;;;;;;;;;12.25;12.25;11.90;99.90;;;;;;5061224;28;12326;-48
2022/01/28 07:31:43;;;;;;;;;12.50;12.50;11.90;99.90;;;;;;5049273;28;11560;-48
2022/01/28 07:34:14;;;;;;;;;13.00;13.00;11.90;99.90;;;;;;5059948;28;11538;-45
2022/01/28 07:36:44;;;;;;;;;11.25;11.25;11.90;99.90;;;;;;5053616;28;11535;-46
2022/01/28 07:39:15;;;;;;;;;12.00;11.50;11.70;99.90;;;;;;5049175;28;11545;-48
2022/01/28 07:41:46;;;;;;;;;12.25;12.25;11.70;99.90;;;;;;5061389;28;11469;-48
2022/01/28 07:44:18;;;;;;;;;8.00;8.00;11.70;99.90;;;;;;5049835;28;11554;-46
2022/01/28 07:46:49;;;;;;;;;11.00;11.00;11.70;99.90;;;;;;5053000;28;11463;-49
2022/01/28 07:49:19;;;;;;;;;9.50;8.25;11.70;99.90;;;;;;5052155;28;11513;-44
2022/01/28 07:51:50;;;;;;;;;8.25;8.25;11.70;99.90;;;;;;5056481;28;11500;-45
2022/01/28 07:54:20;;;;;;;;;10.00;10.00;11.70;99.90;;;;;;5068434;28;11509;-47
2022/01/28 07:56:54;;;;;;;;;7.25;7.25;11.60;99.90;;;;;;5078689;28;11532;-46
2022/01/28 07:59:23;;;;;;;;;8.25;8.25;11.60;99.90;;;;;;5079067;28;11523;-47
2022/01/28 08:01:53;;;;;;;;;10.00;7.25;11.50;99.90;;;;;;5086788;28;11512;-45
2022/01/28 08:04:24;;;;;;;;;8.25;8.25;11.50;99.90;;;;;;5071032;28;11475;-48
2022/01/28 08:06:55;;;;;;;;;11.50;10.75;11.50;99.90;;;;;;5078100;28;11479;-45
2022/01/28 08:09:26;;;;;;;;;11.00;11.00;11.50;99.90;;;;;;5077118;28;11502;-45
2022/01/28 08:11:56;;;;;;;;;10.00;10.00;11.50;99.90;;;;;;5082721;28;11862;-44
2022/01/28 08:14:30;;;;;;;;;7.00;7.00;11.40;99.90;;;;;;5077851;28;11470;-47
2022/01/28 08:17:01;;;;;;;;;13.00;11.75;11.40;99.90;;;;;;5059622;28;11477;-46
2022/01/28 08:19:33;;;;;;;;;7.00;7.00;11.40;99.90;;;;;;5078592;28;11535;-46
2022/01/28 08:22:04;;;;;;;;;11.00;8.50;11.40;99.90;;;;;;5072569;28;11481;-47
2022/01/28 08:24:35;;;;;;;;;6.75;6.75;11.30;99.90;;;;;;5070699;28;11465;-47
2022/01/28 08:27:06;;;;;;;;;6.50;6.50;11.30;99.90;;;;;;5075499;28;11478;-49
2022/01/28 08:29:36;;;;;;;;;6.50;6.50;11.20;99.90;;;;;;5081522;28;12144;-46
2022/01/28 08:32:07;;;;;;;;;8.50;8.50;11.20;99.90;;;;;;5065200;28;12174;-47
2022/01/28 08:34:38;;;;;;;;;5.75;5.75;11.10;99.90;;;;;;5080176;28;11507;-46
2022/01/28 08:37:07;;;;;;;;;3.00;3.00;11.10;99.90;;;;;;5075910;28;11527;-48
2022/01/28 08:39:40;;;;;;;;;6.00;6.00;11.10;99.90;;;;;;5073387;28;11674;-47
2022/01/28 08:42:13;;;;;;;;;5.00;5.00;11.10;99.90;;;;;;5085854;28;11465;-44
2022/01/28 08:44:43;;;;;;;;;5.00;5.00;11.10;99.90;;;;;;5082106;28;12212;-45
2022/01/28 08:47:15;;;;;;;;;4.50;4.50;11.10;99.90;;;;;;5083444;28;11595;-46
2022/01/28 08:49:45;;;;;;;;;6.25;5.00;11.10;99.90;;;;;;5077812;28;11625;-45
2022/01/28 08:52:16;;;;;;;;;4.00;4.00;11.00;99.90;;;;;;5082673;28;11468;-45
2022/01/28 08:54:48;;;;;;;;;4.00;4.00;11.00;99.90;;;;;;5077330;28;11606;-46
2022/01/28 08:57:20;;;;;;;;;4.00;3.00;11.00;99.90;;;;;;5080267;28;10953;-45
2022/01/28 08:59:52;;;;;;;;;4.25;4.25;11.00;99.90;;;;;;5079661;28;10987;-49
2022/01/28 09:02:23;;;;;;;;;5.25;4.00;10.90;99.90;;;;;;5083933;28;10953;-46
2022/01/28 09:04:54;;;;;;;;;4.00;4.00;10.90;99.90;;;;;;5081199;28;12384;-46
2022/01/28 09:07:26;;;;;;;;;2.75;2.75;10.90;99.90;;;;;;5086721;28;12204;-45
2022/01/28 09:10:03;;;;;;;;;5.50;5.50;10.90;99.90;;;;;;5076592;28;11485;-46
2022/01/28 09:12:38;;;;;;;;;4.00;4.00;10.90;99.90;;;;;;5085818;28;11432;-46
2022/01/28 09:15:15;;;;;;;;;5.00;5.00;10.90;99.90;;;;;;5076088;28;11419;-47
2022/01/28 09:17:59;;;;;;;;;5.75;5.75;10.90;99.90;;;;;;5083051;28;11445;-47
2022/01/28 09:20:33;;;;;;;;;5.25;5.25;10.90;99.90;;;;;;5068448;28;11491;-46
2022/01/28 09:23:03;;;;;;;;;6.00;6.00;10.80;99.90;;;;;;5071716;28;11446;-45
2022/01/28 09:25:34;;;;;;;;;5.00;5.00;10.80;99.90;;;;;;5077581;28;11002;-46
2022/01/28 09:28:05;;;;;;;;;3.00;3.00;10.80;99.90;;;;;;5076128;28;11454;-45
2022/01/28 09:30:37;;;;;;;;;4.00;4.00;10.80;99.90;;;;;;5079915;28;11447;-45
2022/01/28 09:33:08;;;;;;;;;5.25;5.25;10.80;99.90;;;;;;5073034;28;11481;-44
2022/01/28 09:35:41;;;;;;;;;5.50;4.75;10.70;99.90;;;;;;5075059;28;11464;-45
2022/01/28 09:38:13;;;;;;;;;5.25;5.25;10.70;99.90;;;;;;5079295;28;12295;-49
2022/01/28 09:40:43;;;;;;;;;5.25;5.25;10.70;99.90;;;;;;5078637;28;11451;-47
2022/01/28 09:43:16;;;;;;;;;5.50;5.25;10.70;99.90;;;;;;5077241;28;11474;-46
2022/01/28 09:45:49;;;;;;;;;8.75;5.00;10.70;99.90;;;;;;5073791;28;11453;-48
2022/01/28 09:48:20;;;;;;;;;5.00;5.00;10.70;99.90;;;;;;5075136;28;11513;-45
2022/01/28 09:50:51;;;;;;;;;4.00;4.00;10.60;99.90;;;;;;5081875;28;11656;-46
2022/01/28 09:53:22;;;;;;;;;4.75;4.75;10.60;99.90;;;;;;5076345;28;12200;-47
2022/01/28 09:55:52;;;;;;;;;4.00;4.00;10.60;99.90;;;;;;5074435;28;12151;-48
2022/01/28 09:58:23;;;;;;;;;2.50;2.50;10.60;99.90;;;;;;5080929;28;11586;-47
2022/01/28 10:00:53;;;;;;;;;7.00;5.00;10.60;99.90;;;;;;5079799;28;12021;-45
2022/01/28 10:03:26;;;;;;;;;11.00;11.00;10.60;99.90;;;;;;5077899;28;11476;-48
2022/01/28 10:05:59;;;;;;;;;5.75;5.75;10.60;99.90;;;;;;5083807;28;11466;-47
2022/01/28 10:08:29;;;;;;;;;5.25;5.25;10.60;99.90;;;;;;5073618;28;11565;-46
2022/01/28 10:11:09;;;;;;;;;4.00;4.00;10.60;99.90;;;;;;5074182;28;11542;-46
2022/01/28 10:13:46;;;;;;;;;5.00;5.00;10.50;99.90;;;;;;5073065;28;11631;-46
2022/01/28 10:16:22;;;;;;;;;4.00;4.00;10.50;99.90;;;;;;5075097;28;11460;-47
2022/01/28 10:18:56;;;;;;;;;3.25;3.25;10.50;99.90;;;;;;5076394;28;11462;-46
2022/01/28 10:21:27;;;;;;;;;3.25;3.25;10.50;99.90;;;;;;5070117;28;11446;-48
2022/01/28 10:24:13;;;;;;;;;4.25;4.25;10.40;99.90;;;;;;5069133;28;11456;-47
2022/01/28 10:27:09;;;;;;;;;4.00;4.00;10.40;99.90;;;;;;5075215;28;11451;-46
2022/01/28 10:29:43;;;;;;;;;4.00;4.00;10.40;99.90;;;;;;5083007;28;11440;-47
2022/01/28 10:32:17;;;;;;;;;3.50;3.50;10.40;99.90;;;;;;5073195;28;11643;-47
2022/01/28 10:34:51;;;;;;;;;2.75;2.75;10.40;99.90;;;;;;5063319;28;11518;-45
2022/01/28 10:37:29;;;;;;;;;5.50;5.50;10.30;99.90;;;;;;5079326;28;11501;-46
2022/01/28 10:40:00;;;;;;;;;5.00;4.00;10.30;99.90;;;;;;5075233;28;11526;-44
2022/01/28 10:42:37;;;;;;;;;5.00;5.00;10.20;99.90;;;;;;5075877;28;11485;-45
2022/01/28 10:45:11;;;;;;;;;5.50;5.50;10.10;99.90;;;;;;5082919;28;12168;-44
2022/01/28 10:47:56;;;;;;;;;3.75;3.75;10.10;99.90;;;;;;5077273;28;11454;-47
2022/01/28 10:50:36;;;;;;;;;5.00;4.75;10.00;99.90;;;;;;5081394;28;11760;-45
2022/01/28 10:53:16;;;;;;;;;4.25;4.25;10.00;99.90;;;;;;5074611;28;11518;-48
2022/01/28 10:55:57;;;;;;;;;4.75;4.75;10.00;99.90;;;;;;5074806;28;11462;-45
2022/01/28 10:58:29;;;;;;;;;4.00;4.00;10.00;99.90;;;;;;5083212;28;11485;-45
2022/01/28 11:01:01;;;;;;;;;5.00;4.75;9.90;99.90;;;;;;5080954;28;11453;-49
2022/01/28 11:03:32;;;;;;;;;5.00;5.00;10.00;99.90;;;;;;5073060;28;11464;-47
2022/01/28 11:06:02;;;;;;;;;5.75;4.00;10.00;99.90;;;;;;5079184;28;11496;-45
2022/01/28 11:08:34;;;;;;;;;8.00;5.00;9.90;99.90;;;;;;5077407;28;11450;-50
2022/01/28 11:11:06;;;;;;;;;5.00;5.00;9.90;99.90;;;;;;5078158;28;12206;-45
2022/01/28 11:13:39;;;;;;;;;5.00;5.00;9.90;99.90;;;;;;5080889;28;11476;-47
2022/01/28 11:16:09;;;;;;;;;5.25;5.25;9.90;99.90;;;;;;5072530;28;11478;-45
2022/01/28 11:18:40;;;;;;;;;5.00;5.00;9.90;99.90;;;;;;5071329;28;11496;-46
2022/01/28 11:21:15;;;;;;;;;4.75;4.75;9.70;99.90;;;;;;5081298;28;11653;-46
2022/01/28 11:24:04;;;;;;;;;5.00;5.00;9.70;99.90;;;;;;5075410;28;11452;-50
2022/01/28 11:26:45;;;;;;;;;6.00;4.50;9.70;99.90;;;;;;5078426;28;12198;-44
2022/01/28 11:29:27;;;;;;;;;4.50;4.50;9.60;99.90;;;;;;5075535;28;11453;-45
2022/01/28 11:32:19;;;;;;;;;6.50;6.50;9.70;99.90;;;;;;5082505;28;12194;-46
2022/01/28 11:35:19;;;;;;;;;4.25;4.25;9.70;99.90;;;;;;5077778;28;11566;-48
2022/01/28 11:37:50;;;;;;;;;5.00;5.00;9.70;99.90;;;;;;5085291;28;11430;-45
2022/01/28 11:40:20;;;;;;;;;5.00;5.00;9.70;99.90;;;;;;5078246;28;11449;-46
2022/01/28 11:43:21;;;;;;;;;4.25;4.25;9.60;99.90;;;;;;5073268;28;11483;-45
2022/01/28 11:46:15;;;;;;;;;5.25;5.25;9.60;99.90;;;;;;5080798;28;11497;-46
2022/01/28 11:48:58;;;;;;;;;7.75;7.75;9.50;99.90;;;;;;5071981;28;11481;-47
2022/01/28 11:51:44;;;;;;;;;3.75;3.75;9.60;99.90;;;;;;5078024;28;11465;-47
2022/01/28 11:54:20;;;;;;;;;6.25;6.25;9.50;99.90;;;;;;5065350;28;11559;-47
2022/01/28 11:57:01;;;;;;;;;8.25;8.25;9.50;99.90;;;;;;5077099;28;11485;-45
2022/01/28 11:59:33;;;;;;;;;7.50;7.50;9.40;99.90;;;;;;5061824;28;11486;-46
2022/01/28 12:02:08;;;;;;;;;6.50;5.00;9.40;99.90;;;;;;5077851;28;11440;-48
2022/01/28 12:04:41;;;;;;;;;6.25;6.25;9.40;99.90;;;;;;5066648;28;11516;-44
2022/01/28 12:07:20;;;;;;;;;3.25;3.25;9.50;99.90;;;;;;5072316;28;11482;-45
2022/01/28 12:09:55;;;;;;;;;4.75;4.75;9.40;99.90;;;;;;5069448;28;11464;-44
2022/01/28 12:12:59;;;;;;;;;5.75;5.75;9.40;99.90;;;;;;5074054;28;11484;-48
2022/01/28 12:15:31;;;;;;;;;6.25;6.25;9.30;99.90;;;;;;5079233;28;11516;-46
2022/01/28 12:18:07;;;;;;;;;4.75;4.75;9.30;99.90;;;;;;5068735;28;11503;-50
2022/01/28 12:20:49;;;;;;;;;7.00;7.00;9.30;99.90;;;;;;5078281;28;11715;-46
2022/01/28 12:23:19;;;;;;;;;7.50;7.50;9.20;99.90;;;;;;5074908;28;11449;-45
2022/01/28 12:25:53;;;;;;;;;6.75;5.50;9.20;99.90;;;;;;5075098;28;11457;-48
2022/01/28 12:28:33;;;;;;;;;7.75;7.75;9.30;99.90;;;;;;5075071;28;11517;-48
2022/01/28 12:31:06;;;;;;;;;5.50;5.50;9.30;99.90;;;;;;5079372;28;12865;-47
2022/01/28 12:33:42;;;;;;;;;8.75;4.00;9.20;99.90;;;;;;5075368;28;11415;-47
2022/01/28 12:36:21;;;;;;;;;10.00;8.25;9.20;99.90;;;;;;5081062;28;11523;-46
2022/01/28 12:41:41;;;;;;;;;6.00;5.00;9.20;99.90;;;;;;5075011;28;11483;-47
2022/01/28 12:44:15;;;;;;;;;4.50;4.50;9.10;99.90;;;;;;5072634;28;11445;-47
2022/01/28 12:47:02;;;;;;;;;5.25;5.25;9.20;99.90;;;;;;5073296;28;11452;-49
2022/01/28 12:49:34;;;;;;;;;5.00;5.00;9.10;99.90;;;;;;5072128;28;12187;-46
2022/01/28 12:52:09;;;;;;;;;5.75;5.75;9.00;99.90;;;;;;5072846;28;11467;-45
2022/01/28 12:54:44;;;;;;;;;6.25;6.25;9.00;99.90;;;;;;5076020;28;11495;-46
2022/01/28 12:57:17;;;;;;;;;7.25;5.00;9.00;99.90;;;;;;5079841;28;11513;-46
2022/01/28 12:59:48;;;;;;;;;7.75;6.75;9.00;99.90;;;;;;5073438;28;11947;-49
2022/01/28 13:02:20;;;;;;;;;7.25;7.25;9.00;99.90;;;;;;5080256;28;11563;-45
2022/01/28 13:10:23;;;;;;;;;7.00;7.00;9.00;99.90;;;;;;5079578;28;11452;-46
2022/01/28 13:13:07;;;;;;;;;8.00;8.00;9.00;99.90;;;;;;5075760;28;11631;-46
2022/01/28 13:15:38;;;;;;;;;7.75;7.75;9.00;99.90;;;;;;5076170;28;11595;-46
2022/01/28 13:18:09;;;;;;;;;8.50;8.50;9.00;99.90;;;;;;5082886;28;12191;-48
2022/01/28 13:20:41;;;;;;;;;10.25;10.25;8.90;99.90;;;;;;5074352;28;11498;-48
2022/01/28 13:23:12;;;;;;;;;7.00;7.00;8.90;99.90;;;;;;5073710;28;12843;-48
2022/01/28 13:25:43;;;;;;;;;7.25;7.25;8.80;99.90;;;;;;5082915;28;11449;-47
2022/01/28 13:28:19;;;;;;;;;8.50;8.50;8.80;99.90;;;;;;5074912;28;11444;-49
2022/01/28 13:30:57;;;;;;;;;9.00;9.00;8.80;99.90;;;;;;5079980;28;11607;-45
2022/01/28 13:33:30;;;;;;;;;9.25;9.25;8.80;99.90;;;;;;5056623;28;11517;-48
2022/01/28 13:36:02;;;;;;;;;8.25;8.25;8.80;99.90;;;;;;5083592;28;11444;-47
2022/01/28 13:38:40;;;;;;;;;9.00;9.00;8.80;99.90;;;;;;5074634;28;11455;-48
2022/01/28 13:41:24;;;;;;;;;9.00;8.00;8.80;99.90;;;;;;5073618;28;11631;-46
2022/01/28 13:43:59;;;;;;;;;8.00;8.00;8.80;99.90;;;;;;5081235;28;11494;-45
2022/01/28 13:46:35;;;;;;;;;10.00;8.75;8.80;99.90;;;;;;5070701;28;11527;-46
2022/01/28 13:49:16;;;;;;;;;9.00;7.75;8.80;99.90;;;;;;5079861;28;11511;-48
2022/01/28 13:51:46;;;;;;;;;9.00;9.00;8.70;99.90;;;;;;5081520;28;11591;-46
2022/01/28 13:54:16;;;;;;;;;8.50;8.50;8.70;99.90;;;;;;5077522;28;11468;-45
2022/01/28 13:56:48;;;;;;;;;8.75;7.75;8.70;99.90;;;;;;5079574;28;11477;-46
2022/01/28 13:59:24;;;;;;;;;8.75;8.75;8.70;99.90;;;;;;5073783;28;12229;-47
2022/01/28 14:01:59;;;;;;;;;9.00;9.00;8.70;99.90;;;;;;5076562;28;11497;-47
2022/01/28 14:04:35;;;;;;;;;10.00;10.00;8.70;99.90;;;;;;5085495;28;11458;-50
2022/01/28 14:07:20;;;;;;;;;7.75;7.75;8.70;99.90;;;;;;5085527;28;11504;-49
2022/01/28 14:09:50;;;;;;;;;9.00;9.00;8.60;99.90;;;;;;5071329;28;11500;-46
2022/01/28 14:12:56;;;;;;;;;7.75;7.75;8.50;99.90;;;;;;5078272;28;11514;-45
2022/01/28 14:15:33;;;;;;;;;10.00;8.25;8.60;99.90;;;;;;5084075;28;11465;-47
2022/01/28 14:18:05;;;;;;;;;8.75;8.75;8.50;99.90;;;;;;5066535;28;11497;-48
2022/01/28 14:20:38;;;;;;;;;7.50;7.50;8.50;99.90;;;;;;5082406;27;11452;-49
2022/01/28 14:23:08;;;;;;;;;11.00;9.00;8.50;99.90;;;;;;5069096;28;11479;-44
2022/01/28 14:25:40;;;;;;;;;11.00;11.00;8.50;99.90;;;;;;5075239;28;11506;-46
2022/01/28 14:31:06;;;;;;;;;5.00;5.00;8.50;99.90;;;;;;5074883;28;11495;-47
2022/01/28 14:33:38;;;;;;;;;9.50;9.50;8.50;99.90;;;;;;5073560;28;11615;-45